Time;durP1;ratioP1;P1;durP2;ratioP2;P2;SDS_P1;SDS_P2;PMS_P1;PMS_P2;Temp;Humidity;BMP_temperature;BMP_pressure;BME280_temperature;BME280_humidity;BME280_pressure;Samples;Min_cycle;Max_cycle;Signal;HPM_P1;HPM_P2
2021/12/18 00:00:57;;;;;;;11.23;7.45;;;;;;;9.87;86.19;101149.03;5089765;28;20068;-71
2021/12/18 00:03:25;;;;;;;11.15;6.30;;;;;;;9.90;86.26;101128.94;5070960;28;20076;-71
2021/12/18 00:05:54;;;;;;;14.52;7.60;;;;;;;9.84;86.41;101126.16;5089578;28;20055;-72
2021/12/18 00:08:22;;;;;;;8.70;5.18;;;;;;;9.77;86.76;101124.22;5084746;28;20056;-72
2021/12/18 00:10:49;;;;;;;13.30;7.15;;;;;;;9.79;86.99;101122.47;5070620;28;20127;-73
2021/12/18 00:13:17;;;;;;;12.60;6.95;;;;;;;9.83;87.28;101119.09;5096365;27;20399;-71
2021/12/18 00:15:45;;;;;;;11.27;6.68;;;;;;;9.86;87.37;101126.16;5096959;27;20466;-71
2021/12/18 00:18:13;;;;;;;9.07;5.70;;;;;;;9.88;87.50;101129.72;5087361;28;20036;-71
2021/12/18 00:20:41;;;;;;;12.70;8.30;;;;;;;9.94;87.42;101119.31;5088553;28;20118;-71
2021/12/18 00:23:10;;;;;;;21.00;13.15;;;;;;;9.99;87.28;101117.69;5087058;28;20032;-71
2021/12/18 00:25:37;;;;;;;13.35;7.60;;;;;;;9.91;87.10;101108.72;5087882;28;20134;-71
2021/12/18 00:28:05;;;;;;;13.68;7.72;;;;;;;9.85;87.20;101111.19;5106599;27;20048;-71
2021/12/18 00:30:33;;;;;;;15.85;10.23;;;;;;;9.86;87.23;101110.34;5081707;28;20043;-71
2021/12/18 00:33:01;;;;;;;16.50;7.50;;;;;;;9.86;87.34;101111.22;5087941;28;20036;-71
2021/12/18 00:35:29;;;;;;;16.40;9.57;;;;;;;9.91;87.40;101112.22;5052738;28;20131;-71
2021/12/18 00:37:57;;;;;;;13.75;9.13;;;;;;;9.95;87.15;101108.81;5094922;27;20122;-71
2021/12/18 00:40:30;;;;;;;15.68;8.13;;;;;;;9.95;87.14;101107.94;5096240;28;20036;-71
2021/12/18 00:43:01;;;;;;;10.67;7.20;;;;;;;9.90;87.26;101096.38;5095064;27;20035;-71
2021/12/18 00:45:29;;;;;;;12.20;6.60;;;;;;;9.81;87.38;101098.78;5100998;27;20048;-71
2021/12/18 00:47:58;;;;;;;13.00;8.00;;;;;;;9.76;87.16;101087.25;5070965;28;20041;-71
2021/12/18 00:50:29;;;;;;;13.15;7.22;;;;;;;9.76;87.30;101103.06;5104243;28;20044;-72
2021/12/18 00:52:57;;;;;;;18.08;11.23;;;;;;;9.79;87.31;101098.75;5089424;27;20044;-71
2021/12/18 00:55:26;;;;;;;18.15;11.00;;;;;;;9.91;87.24;101092.91;5088003;28;20085;-71
2021/12/18 00:57:53;;;;;;;15.27;8.73;;;;;;;9.97;87.30;101090.41;5088755;28;20048;-71
2021/12/18 01:00:24;;;;;;;13.90;8.73;;;;;;;10.01;86.99;101089.59;5091096;28;20122;-71
2021/12/18 01:02:56;;;;;;;14.68;8.95;;;;;;;10.02;87.06;101087.88;5091525;28;20110;-71
2021/12/18 01:05:25;;;;;;;18.30;10.93;;;;;;;9.96;86.88;101084.25;5108959;28;20515;-71
2021/12/18 01:07:55;;;;;;;11.95;7.80;;;;;;;9.97;86.83;101082.50;5091537;28;20055;-71
2021/12/18 01:10:38;;;;;;;16.17;10.10;;;;;;;10.02;86.77;101080.84;5091852;28;20043;-72
2021/12/18 01:13:11;;;;;;;15.75;9.93;;;;;;;10.07;86.69;101081.84;5075136;28;20044;-71
2021/12/18 01:15:44;;;;;;;11.68;8.07;;;;;;;10.07;86.78;101079.19;5108559;28;20140;-71
2021/12/18 01:23:41;;;;;;;;;;;;;;;10.06;86.77;101060.69;5090580;28;20182;-71
2021/12/18 01:26:09;;;;;;;12.02;8.18;;;;;;;9.97;87.11;101058.75;5091073;28;19924;-71
2021/12/18 01:28:38;;;;;;;13.18;7.40;;;;;;;9.96;86.90;101049.06;5102760;27;20044;-71
2021/12/18 01:31:09;;;;;;;17.10;8.52;;;;;;;9.92;86.70;101053.38;5094686;28;20044;-71
2021/12/18 01:33:37;;;;;;;14.82;12.18;;;;;;;9.90;86.74;101056.84;5097581;27;20047;-72
2021/12/18 01:36:04;;;;;;;15.10;8.30;;;;;;;9.88;86.59;101050.63;5093218;28;20496;-71
2021/12/18 01:38:32;;;;;;;14.60;10.40;;;;;;;9.92;86.75;101041.91;5093902;28;20549;-71
2021/12/18 01:41:02;;;;;;;13.20;8.02;;;;;;;9.92;86.52;101034.00;5092883;28;20395;-71
2021/12/18 01:43:52;;;;;;;12.68;8.40;;;;;;;9.87;86.60;101028.63;5092158;28;20461;-71
2021/12/18 01:46:39;;;;;;;13.80;11.02;;;;;;;9.86;86.30;101028.59;5091358;28;20165;-71
2021/12/18 01:52:04;;;;;;;14.57;8.50;;;;;;;9.82;86.00;101013.59;5090696;28;20082;-71
2021/12/18 01:54:32;;;;;;;16.42;10.55;;;;;;;9.78;85.60;101017.00;5090338;28;20091;-71
2021/12/18 01:57:00;;;;;;;16.65;9.35;;;;;;;9.79;85.48;101008.22;5091215;28;20125;-71
2021/12/18 01:59:36;;;;;;;12.77;7.78;;;;;;;9.84;85.55;101009.25;5090778;28;20040;-71
2021/12/18 02:02:06;;;;;;;15.57;8.05;;;;;;;9.85;85.24;101008.34;5090669;28;20047;-71
2021/12/18 02:04:34;;;;;;;14.55;9.85;;;;;;;9.83;85.18;101004.81;5091640;28;20500;-71
2021/12/18 02:07:03;;;;;;;13.88;8.68;;;;;;;9.83;85.31;100999.53;5089325;28;20041;-71
2021/12/18 02:09:47;;;;;;;11.23;7.70;;;;;;;9.83;85.15;100995.16;5091925;28;20040;-71
2021/12/18 02:12:17;;;;;;;11.75;6.63;;;;;;;9.83;85.05;100983.72;5089883;28;20055;-71
2021/12/18 02:20:26;;;;;;;9.40;5.82;;;;;;;9.83;84.90;100970.56;5091620;28;20093;-71
2021/12/18 02:22:55;;;;;;;16.88;9.63;;;;;;;9.85;84.89;100974.09;5090306;28;20429;-72
2021/12/18 02:25:25;;;;;;;10.77;7.55;;;;;;;9.84;84.66;100969.69;5105706;28;20750;-71
2021/12/18 02:27:55;;;;;;;9.90;6.18;;;;;;;9.84;84.56;100965.31;5096166;27;20092;-72
2021/12/18 02:30:24;;;;;;;11.02;6.57;;;;;;;9.83;84.40;100958.25;5091547;27;20127;-71
2021/12/18 02:32:52;;;;;;;11.95;7.28;;;;;;;9.72;84.39;100951.84;5073462;28;20085;-71
2021/12/18 02:35:30;;;;;;;11.75;6.45;;;;;;;9.65;84.38;100936.75;5091595;28;20063;-72
2021/12/18 02:38:09;;;;;;;10.82;6.35;;;;;;;9.53;84.76;100934.72;5091143;28;20063;-72
2021/12/18 02:40:55;;;;;;;11.68;5.70;;;;;;;9.50;84.52;100934.69;5088925;28;20098;-72
2021/12/18 02:43:25;;;;;;;10.65;7.68;;;;;;;9.55;84.46;100935.66;5088888;28;20044;-70
2021/12/18 02:45:58;;;;;;;12.05;9.70;;;;;;;9.61;84.38;100934.91;5077671;28;20408;-72
2021/12/18 02:48:27;;;;;;;18.27;16.33;;;;;;;9.71;84.26;100939.53;5076905;28;20076;-71
2021/12/18 02:50:57;;;;;;;11.23;7.95;;;;;;;9.80;84.29;100933.56;5088300;28;20114;-71
2021/12/18 02:53:27;;;;;;;9.05;6.10;;;;;;;9.82;84.10;100932.75;5087241;28;20485;-71
2021/12/18 02:55:56;;;;;;;7.93;5.32;;;;;;;9.83;84.09;100941.53;5070471;28;20041;-71
2021/12/18 02:58:25;;;;;;;9.77;5.93;;;;;;;9.80;83.94;100937.09;5068423;28;20042;-70
2021/12/18 03:00:54;;;;;;;8.98;4.95;;;;;;;9.82;83.94;100926.56;5090050;28;20093;-71
2021/12/18 03:03:25;;;;;;;7.82;4.85;;;;;;;9.80;83.91;100939.72;5089383;28;20036;-72
2021/12/18 03:06:07;;;;;;;8.38;5.38;;;;;;;9.84;83.73;100940.69;5090325;28;20040;-71
2021/12/18 03:08:49;;;;;;;8.88;5.32;;;;;;;9.85;83.36;100939.81;5083113;28;20536;-71
2021/12/18 03:22:58;;;;;;;9.68;6.50;;;;;;;9.86;83.49;100952.13;5086623;27;20430;-73
2021/12/18 03:25:29;;;;;;;10.85;6.32;;;;;;;9.86;83.50;100944.22;5062593;28;20043;-73
2021/12/18 03:27:58;;;;;;;8.95;6.07;;;;;;;9.79;83.41;100943.22;5064082;28;20079;-73
2021/12/18 03:30:26;;;;;;;8.02;4.75;;;;;;;9.73;83.64;100945.72;5065189;28;20626;-73
2021/12/18 03:32:54;;;;;;;8.85;5.80;;;;;;;9.69;83.82;100940.34;5046781;28;20040;-73
2021/12/18 03:35:22;;;;;;;8.98;6.05;;;;;;;9.67;83.82;100932.41;5065243;28;20130;-73
2021/12/18 03:37:52;;;;;;;9.60;6.35;;;;;;;9.67;83.98;100937.69;5064918;28;20524;-73
2021/12/18 03:40:21;;;;;;;9.32;5.90;;;;;;;9.63;83.99;100930.56;5084495;28;20132;-73
2021/12/18 03:42:50;;;;;;;10.95;6.50;;;;;;;9.65;84.13;100920.06;5084640;28;20036;-73
2021/12/18 03:45:20;;;;;;;10.02;6.32;;;;;;;9.64;84.07;100924.44;5083275;28;20064;-73
2021/12/18 03:47:48;;;;;;;11.57;7.13;;;;;;;9.62;83.93;100914.72;5068421;28;20605;-73
2021/12/18 03:50:16;;;;;;;8.95;6.25;;;;;;;9.61;83.91;100919.09;5065016;28;20099;-73
2021/12/18 03:52:44;;;;;;;9.73;6.70;;;;;;;9.65;83.92;100920.06;5064685;28;20400;-74
2021/12/18 03:55:13;;;;;;;11.43;6.97;;;;;;;9.69;83.82;100911.34;5065072;28;20044;-74
2021/12/18 03:57:41;;;;;;;12.55;7.45;;;;;;;9.69;83.68;100912.25;5071388;28;20098;-73
2021/12/18 04:00:13;;;;;;;12.93;8.48;;;;;;;9.68;83.43;100904.31;5065091;28;20063;-74
2021/12/18 04:02:41;;;;;;;14.80;8.10;;;;;;;9.62;83.73;100910.34;5065068;28;20052;-74
2021/12/18 04:05:10;;;;;;;10.15;6.70;;;;;;;9.58;83.97;100904.09;5084022;28;20040;-74
2021/12/18 04:07:42;;;;;;;8.60;6.22;;;;;;;9.57;83.73;100909.34;5083722;28;20067;-74
2021/12/18 04:10:10;;;;;;;10.23;6.38;;;;;;;9.56;83.93;100900.56;5085700;28;20063;-74
2021/12/18 04:12:39;;;;;;;10.45;5.43;;;;;;;9.53;83.74;100895.22;5084889;28;20043;-74
2021/12/18 04:15:08;;;;;;;9.15;6.35;;;;;;;9.49;83.88;100897.75;5084307;28;20040;-74
2021/12/18 04:17:35;;;;;;;11.63;7.20;;;;;;;9.46;83.90;100888.03;5046401;28;20057;-75
2021/12/18 04:20:03;;;;;;;11.77;6.18;;;;;;;9.43;84.02;100889.72;5064499;28;20059;-75
2021/12/18 04:22:31;;;;;;;9.73;6.68;;;;;;;9.42;83.86;100890.56;5063879;28;20053;-75
2021/12/18 04:24:59;;;;;;;11.57;6.70;;;;;;;9.44;83.76;100895.03;5064009;28;20048;-75
2021/12/18 04:27:26;;;;;;;8.80;5.90;;;;;;;9.39;83.73;100896.63;5063321;28;20117;-75
2021/12/18 04:29:55;;;;;;;9.18;6.35;;;;;;;9.42;83.60;100895.84;5064783;28;20512;-75
2021/12/18 04:32:23;;;;;;;10.05;6.90;;;;;;;9.41;83.56;100894.94;5058550;28;20045;-75
2021/12/18 04:34:51;;;;;;;10.15;6.53;;;;;;;9.42;83.52;100896.72;5050415;28;20033;-76
2021/12/18 04:37:20;;;;;;;12.27;6.72;;;;;;;9.44;83.54;100902.94;5034449;28;20049;-75
2021/12/18 04:39:47;;;;;;;11.55;6.43;;;;;;;9.39;83.39;100890.47;5050767;28;20044;-75
2021/12/18 04:42:15;;;;;;;10.82;6.70;;;;;;;9.34;83.13;100890.38;5049762;28;20090;-75
2021/12/18 04:44:42;;;;;;;9.13;5.85;;;;;;;9.35;83.10;100883.38;5067094;28;20485;-76
2021/12/18 04:47:12;;;;;;;8.85;5.95;;;;;;;9.37;83.06;100889.59;5033206;28;21566;-76
2021/12/18 04:49:40;;;;;;;10.07;6.35;;;;;;;9.40;83.19;100887.00;5050196;28;20041;-76
2021/12/18 04:52:08;;;;;;;8.50;6.55;;;;;;;9.42;82.97;100882.66;5049802;28;20047;-76
2021/12/18 04:54:36;;;;;;;14.18;7.70;;;;;;;9.43;82.86;100882.69;5063675;28;20523;-75
2021/12/18 04:57:04;;;;;;;32.92;21.45;;;;;;;9.41;82.87;100876.50;5049413;28;20067;-75
2021/12/18 04:59:32;;;;;;;48.42;38.47;;;;;;;9.41;83.08;100879.13;5050425;28;20132;-75
2021/12/18 05:01:59;;;;;;;54.88;42.70;;;;;;;9.44;83.17;100879.22;5049170;28;20079;-76
2021/12/18 05:04:28;;;;;;;62.83;46.80;;;;;;;9.47;83.21;100881.00;5049870;28;20037;-76
2021/12/18 05:06:56;;;;;;;37.60;29.25;;;;;;;9.48;82.90;100881.06;5051676;28;20049;-75
2021/12/18 05:09:24;;;;;;;33.65;25.25;;;;;;;9.52;83.15;100876.72;5049740;28;20068;-75
2021/12/18 05:11:51;;;;;;;23.15;17.55;;;;;;;9.52;83.16;100877.63;5049489;28;20069;-76
2021/12/18 05:14:19;;;;;;;21.67;16.38;;;;;;;9.53;82.98;100878.50;5033867;28;20065;-75
2021/12/18 05:16:47;;;;;;;15.05;11.32;;;;;;;9.55;83.03;100877.69;5050587;28;20060;-76
2021/12/18 05:19:15;;;;;;;17.65;12.52;;;;;;;9.57;83.01;100876.00;5050594;28;20659;-75
2021/12/18 05:21:45;;;;;;;28.52;22.55;;;;;;;9.59;82.83;100874.25;5049559;28;20071;-75
2021/12/18 05:24:13;;;;;;;37.05;28.23;;;;;;;9.54;82.73;100865.38;5050447;28;20072;-75
2021/12/18 05:26:41;;;;;;;34.15;25.77;;;;;;;9.53;82.81;100863.59;5049397;28;21366;-75
2021/12/18 05:29:08;;;;;;;32.33;25.63;;;;;;;9.49;82.78;100863.50;5050835;28;20138;-75
2021/12/18 05:31:36;;;;;;;40.50;30.58;;;;;;;9.45;82.49;100865.16;5065736;28;20148;-75
2021/12/18 05:34:05;;;;;;;51.67;40.95;;;;;;;9.45;82.68;100865.16;5050163;28;20598;-76
2021/12/18 05:36:36;;;;;;;50.60;42.47;;;;;;;9.49;82.81;100872.28;5049535;28;20037;-75
2021/12/18 05:39:09;;;;;;;46.47;37.60;;;;;;;9.54;82.75;100870.63;5049514;28;20057;-76
2021/12/18 05:41:38;;;;;;;21.25;17.15;;;;;;;9.55;82.51;100871.53;5050004;28;20037;-76
2021/12/18 05:44:06;;;;;;;25.00;22.33;;;;;;;9.50;82.61;100871.44;5046597;28;20490;-74
2021/12/18 05:46:34;;;;;;;27.75;24.75;;;;;;;9.47;82.58;100863.47;5047972;28;20048;-75
2021/12/18 05:49:02;;;;;;;24.92;22.23;;;;;;;9.46;82.45;100858.16;5052460;28;20055;-75
2021/12/18 05:51:32;;;;;;;20.85;17.50;;;;;;;9.45;82.63;100862.53;5049923;28;20055;-75
2021/12/18 05:54:00;;;;;;;17.00;13.93;;;;;;;9.40;82.17;100861.53;5050275;28;20044;-74
2021/12/18 05:56:30;;;;;;;45.65;40.78;;;;;;;9.39;82.31;100862.41;5047928;28;20063;-74
2021/12/18 05:58:58;;;;;;;58.90;52.45;;;;;;;9.38;82.25;100859.75;5039675;28;20498;-75
2021/12/18 06:01:27;;;;;;;105.88;94.32;;;;;;;9.36;82.03;100858.81;5046485;28;20409;-74
2021/12/18 06:03:56;;;;;;;101.13;90.22;;;;;;;9.34;82.15;100853.50;5050229;28;20045;-75
2021/12/18 06:06:24;;;;;;;126.97;109.35;;;;;;;9.34;82.39;100855.25;5032605;28;20092;-75
2021/12/18 06:08:52;;;;;;;150.00;133.18;;;;;;;9.32;82.32;100854.34;5030561;28;20095;-75
2021/12/18 06:11:22;;;;;;;134.68;119.45;;;;;;;9.32;82.31;100849.09;5043858;28;20040;-74
2021/12/18 06:13:53;;;;;;;97.97;77.80;;;;;;;9.29;82.32;100847.25;5049953;28;20041;-74
2021/12/18 06:16:22;;;;;;;66.95;49.40;;;;;;;9.30;82.22;100843.78;5042340;28;20514;-74
2021/12/18 06:18:50;;;;;;;65.43;54.63;;;;;;;9.36;82.64;100837.75;5050138;28;20106;-75
2021/12/18 06:21:22;;;;;;;31.38;26.80;;;;;;;9.48;83.56;100825.72;5053211;28;20631;-75
2021/12/18 06:23:54;;;;;;;44.65;39.92;;;;;;;9.62;83.79;100825.13;5050099;28;20440;-74
2021/12/18 06:26:27;;;;;;;46.88;41.28;;;;;;;9.78;84.74;100827.22;5056390;28;20044;-75
2021/12/18 06:28:57;;;;;;;75.80;67.53;;;;;;;10.00;85.18;100829.38;5047142;28;20390;-74
2021/12/18 06:31:24;;;;;;;41.45;35.60;;;;;;;10.15;85.59;100827.03;5033768;28;20493;-74
2021/12/18 06:33:52;;;;;;;26.13;22.35;;;;;;;10.23;85.83;100825.47;5049024;28;20120;-74
2021/12/18 06:36:20;;;;;;;28.38;25.20;;;;;;;10.36;85.83;100827.47;5047882;28;20497;-74
2021/12/18 06:38:48;;;;;;;21.13;18.83;;;;;;;10.50;85.96;100813.63;5043591;28;20494;-74
2021/12/18 06:41:15;;;;;;;22.30;19.10;;;;;;;10.67;86.15;100801.56;5029582;28;20149;-74
2021/12/18 06:43:47;;;;;;;29.83;26.65;;;;;;;10.81;86.14;100807.94;5047777;28;20127;-74
2021/12/18 06:46:17;;;;;;;46.88;41.78;;;;;;;11.02;86.29;100803.00;5047124;28;20140;-74
2021/12/18 06:48:45;;;;;;;26.83;23.38;;;;;;;11.23;86.30;100809.41;5063985;28;20045;-74
2021/12/18 06:51:13;;;;;;;41.72;36.90;;;;;;;11.44;86.35;100815.88;5062642;28;20401;-74
2021/12/18 06:53:40;;;;;;;28.67;24.70;;;;;;;11.69;86.20;100811.78;5058949;28;20103;-74
2021/12/18 06:56:08;;;;;;;46.53;36.83;;;;;;;11.91;85.92;100805.91;5042946;28;20043;-74
2021/12/18 06:58:36;;;;;;;42.00;31.92;;;;;;;12.15;85.64;100805.25;5042657;28;20056;-74
2021/12/18 07:01:04;;;;;;;66.72;52.67;;;;;;;12.37;85.42;100807.25;5044043;28;20037;-74
2021/12/18 07:03:34;;;;;;;49.25;39.88;;;;;;;12.61;85.49;100801.25;5048254;28;20056;-74
2021/12/18 07:06:01;;;;;;;41.67;32.00;;;;;;;12.82;85.36;100803.16;5047269;28;20044;-73
2021/12/18 07:08:29;;;;;;;37.00;29.75;;;;;;;12.99;85.19;100798.88;5047566;28;20139;-74
2021/12/18 07:10:56;;;;;;;67.43;55.53;;;;;;;13.12;84.84;100783.94;5047663;28;20049;-73
2021/12/18 07:13:24;;;;;;;44.15;38.97;;;;;;;13.24;84.63;100785.81;5042331;28;20076;-73
2021/12/18 07:15:53;;;;;;;16.85;13.07;;;;;;;13.35;84.00;100781.44;5045052;28;20048;-73
2021/12/18 07:18:20;;;;;;;10.23;7.30;;;;;;;13.45;83.70;100777.97;5043142;28;20045;-71
2021/12/18 07:20:51;;;;;;;7.03;4.53;;;;;;;13.50;82.52;100779.75;5078169;28;20041;-71
2021/12/18 07:23:19;;;;;;;5.35;2.70;;;;;;;13.60;81.78;100774.44;5050380;28;20059;-71
2021/12/18 07:25:47;;;;;;;4.10;2.70;;;;;;;13.70;81.07;100768.31;5050230;28;20047;-70
2021/12/18 07:28:15;;;;;;;4.00;2.03;;;;;;;13.82;80.52;100773.66;5050861;28;20053;-71
2021/12/18 07:30:43;;;;;;;4.80;2.17;;;;;;;13.99;80.30;100771.91;5065551;28;20068;-71
2021/12/18 07:33:11;;;;;;;3.25;1.75;;;;;;;14.10;79.96;100762.22;5063682;28;20428;-71
2021/12/18 07:35:39;;;;;;;2.88;1.70;;;;;;;14.21;79.14;100756.88;5049112;28;20039;-71
2021/12/18 07:38:09;;;;;;;1.75;1.10;;;;;;;14.32;78.43;100761.31;5055153;28;20115;-71
2021/12/18 07:40:37;;;;;;;2.38;1.77;;;;;;;14.49;78.72;100749.84;5067702;28;20751;-71
2021/12/18 07:43:05;;;;;;;1.80;1.45;;;;;;;14.61;77.51;100745.41;5066076;28;20071;-70
2021/12/18 07:45:34;;;;;;;2.85;1.70;;;;;;;14.64;76.31;100749.81;5065950;28;20048;-70
2021/12/18 07:48:02;;;;;;;2.13;1.45;;;;;;;14.79;76.12;100752.47;5062832;28;20087;-70
2021/12/18 07:50:30;;;;;;;2.28;1.58;;;;;;;14.83;74.80;100740.06;5046402;28;20556;-71
2021/12/18 07:52:58;;;;;;;2.88;1.50;;;;;;;14.82;72.90;100749.81;5048809;28;20455;-71
2021/12/18 07:55:28;;;;;;;4.32;2.90;;;;;;;14.59;71.97;100749.84;5066468;28;20064;-71
2021/12/18 07:57:55;;;;;;;2.50;1.80;;;;;;;14.21;70.13;100747.16;5061314;28;20040;-71
2021/12/18 08:00:23;;;;;;;7.28;4.05;;;;;;;13.93;70.43;100742.69;5065182;28;20612;-70
2021/12/18 08:02:51;;;;;;;4.13;2.03;;;;;;;13.94;70.58;100748.00;5064794;28;20169;-71
2021/12/18 08:05:19;;;;;;;4.38;1.90;;;;;;;14.03;69.53;100747.16;5046594;28;20520;-71
2021/12/18 08:07:47;;;;;;;4.30;1.95;;;;;;;14.05;68.89;100744.47;5067985;28;20484;-71
2021/12/18 08:10:15;;;;;;;2.63;1.73;;;;;;;14.08;69.16;100740.06;5060893;28;20144;-71
2021/12/18 08:12:45;;;;;;;4.20;1.92;;;;;;;14.18;68.77;100735.63;5061269;28;20044;-72
2021/12/18 08:15:13;;;;;;;6.18;3.97;;;;;;;14.36;69.04;100719.72;5070049;28;20098;-71
2021/12/18 08:17:41;;;;;;;4.38;2.28;;;;;;;14.43;68.43;100731.28;5068119;28;20458;-73
2021/12/18 08:20:11;;;;;;;8.45;5.57;;;;;;;14.31;67.42;100732.97;5065697;28;20048;-72
2021/12/18 08:22:38;;;;;;;17.80;12.52;;;;;;;14.23;67.60;100732.13;5057267;28;20396;-71
2021/12/18 08:25:07;;;;;;;21.58;16.92;;;;;;;14.11;66.92;100732.09;5067046;28;20119;-72
2021/12/18 08:27:35;;;;;;;27.70;21.08;;;;;;;13.96;66.76;100735.63;5060476;28;20567;-72
2021/12/18 08:30:05;;;;;;;23.00;16.23;;;;;;;13.96;67.15;100730.34;5068772;28;20112;-72
2021/12/18 08:32:32;;;;;;;20.17;15.52;;;;;;;14.00;67.52;100732.97;5068812;28;20090;-72
2021/12/18 08:35:00;;;;;;;9.98;5.57;;;;;;;14.07;67.41;100727.69;5067778;28;20040;-72
2021/12/18 08:37:28;;;;;;;6.60;3.55;;;;;;;14.17;67.59;100720.63;5048595;28;20051;-72
2021/12/18 08:39:55;;;;;;;5.70;3.38;;;;;;;14.26;67.85;100712.63;5066469;28;20032;-72
2021/12/18 08:42:23;;;;;;;10.63;7.57;;;;;;;14.32;67.25;100715.28;5065502;28;20416;-72
2021/12/18 08:44:50;;;;;;;12.85;9.75;;;;;;;14.23;67.31;100702.03;5069172;28;20075;-72
2021/12/18 08:47:20;;;;;;;14.02;9.63;;;;;;;14.20;67.86;100697.59;5057500;28;20125;-71
2021/12/18 08:49:47;;;;;;;13.75;9.80;;;;;;;14.16;67.24;100706.47;5047448;28;20424;-72
2021/12/18 08:52:15;;;;;;;18.73;14.93;;;;;;;14.18;67.46;100702.00;5044560;28;20041;-72
2021/12/18 08:54:42;;;;;;;18.75;16.70;;;;;;;14.23;67.92;100689.66;5034089;28;20446;-74
2021/12/18 08:57:10;;;;;;;8.02;5.15;;;;;;;14.12;67.58;100690.50;5037231;28;20072;-73
2021/12/18 08:59:39;;;;;;;4.63;3.15;;;;;;;13.99;67.69;100676.34;5036850;28;20068;-72
2021/12/18 09:02:07;;;;;;;15.68;9.48;;;;;;;13.88;67.35;100696.69;5037045;28;20122;-72
2021/12/18 09:04:37;;;;;;;11.77;7.75;;;;;;;13.88;68.15;100699.34;5036020;28;20051;-70
2021/12/18 09:07:05;;;;;;;12.30;7.75;;;;;;;13.82;67.93;100688.75;5040222;28;20077;-72
2021/12/18 09:09:33;;;;;;;27.48;22.15;;;;;;;13.77;67.90;100688.75;5044029;28;20053;-71
2021/12/18 09:12:01;;;;;;;33.15;21.77;;;;;;;13.70;67.89;100688.72;5031324;28;20135;-71
2021/12/18 09:14:29;;;;;;;20.33;15.18;;;;;;;13.74;68.28;100683.41;5039517;28;20518;-71
2021/12/18 09:16:57;;;;;;;33.03;26.23;;;;;;;13.76;68.04;100675.47;5048372;28;20056;-71
2021/12/18 09:19:24;;;;;;;46.55;38.13;;;;;;;13.82;68.58;100670.16;5043148;28;20069;-71
2021/12/18 09:21:54;;;;;;;33.83;25.48;;;;;;;13.91;68.55;100667.53;5031787;28;20049;-72
2021/12/18 09:24:22;;;;;;;37.15;29.42;;;;;;;13.93;68.69;100657.78;5043371;28;20401;-71
2021/12/18 09:26:49;;;;;;;28.17;23.73;;;;;;;13.96;69.00;100652.47;5063237;28;20064;-71
2021/12/18 09:29:17;;;;;;;22.55;16.40;;;;;;;13.96;68.93;100645.41;5057174;28;20399;-71
2021/12/18 09:31:44;;;;;;;14.25;10.27;;;;;;;14.01;68.88;100640.09;5057789;28;20040;-71
2021/12/18 09:34:12;;;;;;;22.00;16.85;;;;;;;14.07;68.67;100629.47;5051798;28;20068;-71
2021/12/18 09:36:40;;;;;;;27.25;22.05;;;;;;;14.08;68.96;100631.25;5058161;28;20047;-71
2021/12/18 09:39:09;;;;;;;12.50;9.48;;;;;;;14.05;67.88;100623.25;5065478;28;20129;-70
2021/12/18 09:41:38;;;;;;;12.80;9.75;;;;;;;14.05;68.59;100611.75;5044082;28;20047;-70
2021/12/18 09:44:06;;;;;;;14.20;10.30;;;;;;;14.07;67.97;100613.53;5049041;28;20441;-71
2021/12/18 09:46:34;;;;;;;6.97;4.15;;;;;;;14.03;67.99;100613.56;5065629;28;20064;-71
2021/12/18 09:49:03;;;;;;;5.32;3.72;;;;;;;14.00;68.45;100610.88;5056830;28;20044;-71
2021/12/18 09:51:32;;;;;;;19.13;13.10;;;;;;;14.07;68.22;100599.38;5059367;28;20052;-70
2021/12/18 09:54:00;;;;;;;20.77;15.90;;;;;;;14.22;68.50;100592.28;5055946;28;20056;-71
2021/12/18 09:56:29;;;;;;;12.35;8.10;;;;;;;14.51;68.72;100580.72;5050201;28;20056;-71
2021/12/18 09:58:58;;;;;;;8.05;3.45;;;;;;;14.80;68.52;100576.19;5066342;28;20041;-76
2021/12/18 10:01:25;;;;;;;3.63;2.38;;;;;;;15.08;68.66;100566.28;5063108;28;20033;-73
2021/12/18 10:03:55;;;;;;;3.85;1.73;;;;;;;15.31;68.09;100559.03;5061279;28;20059;-71
2021/12/18 10:06:36;;;;;;;4.75;2.00;;;;;;;15.59;67.03;100557.09;5047906;28;20093;-70
2021/12/18 10:09:06;;;;;;;3.78;2.05;;;;;;;15.65;66.62;100535.75;5065224;28;20052;-71
2021/12/18 10:11:46;;;;;;;3.30;2.05;;;;;;;15.76;66.45;100546.28;5063451;28;20559;-71
2021/12/18 10:14:14;;;;;;;3.65;2.17;;;;;;;15.89;66.80;100558.59;5063420;28;20052;-70
2021/12/18 10:16:45;;;;;;;4.80;2.33;;;;;;;15.82;66.63;100575.50;5054255;28;20136;-71
2021/12/18 10:19:25;;;;;;;4.38;2.63;;;;;;;15.71;66.14;100577.38;5061384;28;20094;-71
2021/12/18 10:21:58;;;;;;;27.77;15.93;;;;;;;15.64;66.39;100570.34;5065547;28;20547;-72
2021/12/18 10:24:25;;;;;;;6.65;3.15;;;;;;;15.50;66.00;100555.34;5065768;28;20051;-71
2021/12/18 10:26:55;;;;;;;15.38;7.20;;;;;;;15.36;66.71;100548.38;5066031;28;20119;-72
2021/12/18 10:29:32;;;;;;;9.10;5.72;;;;;;;15.16;67.46;100557.34;5043907;28;20564;-72
2021/12/18 10:32:06;;;;;;;10.45;4.95;;;;;;;15.06;68.09;100550.34;5064414;28;20037;-71
2021/12/18 10:34:34;;;;;;;10.98;4.93;;;;;;;14.96;68.43;100543.34;5065502;28;20113;-71
2021/12/18 10:37:17;;;;;;;13.25;7.15;;;;;;;14.91;68.44;100534.47;5047069;28;20086;-72
2021/12/18 10:39:56;;;;;;;7.95;3.30;;;;;;;14.83;68.54;100517.72;5055944;28;20066;-71
2021/12/18 10:42:28;;;;;;;7.80;4.07;;;;;;;14.91;69.19;100521.19;5066396;28;20052;-71
2021/12/18 10:45:03;;;;;;;12.00;5.85;;;;;;;15.03;69.90;100523.75;5063975;28;20044;-71
2021/12/18 10:47:48;;;;;;;14.10;8.35;;;;;;;15.13;70.00;100511.31;5060438;28;20048;-71
2021/12/18 10:50:21;;;;;;;13.43;7.20;;;;;;;15.25;70.57;100518.31;5063157;28;20125;-71
2021/12/18 10:52:55;;;;;;;22.20;8.63;;;;;;;15.18;70.14;100511.25;5061875;28;20044;-71
2021/12/18 10:55:28;;;;;;;10.57;5.47;;;;;;;15.09;69.95;100510.47;5065769;28;20105;-71
2021/12/18 10:57:58;;;;;;;7.38;3.28;;;;;;;14.96;69.58;100506.13;5063567;28;20123;-71
2021/12/18 11:00:40;;;;;;;8.25;4.00;;;;;;;14.84;69.34;100508.81;5062219;28;20129;-70
2021/12/18 11:03:33;;;;;;;7.18;3.70;;;;;;;14.77;69.09;100498.25;5063175;28;20041;-71
2021/12/18 11:06:11;;;;;;;10.85;3.00;;;;;;;14.73;68.74;100486.75;5056770;28;20528;-71
2021/12/18 11:09:06;;;;;;;11.25;5.55;;;;;;;14.72;68.60;100474.34;5057206;28;20068;-70
2021/12/18 11:14:38;;;;;;;9.30;4.60;;;;;;;14.48;68.65;100493.97;5031150;28;20113;-71
2021/12/18 11:17:09;;;;;;;12.95;5.30;;;;;;;14.35;68.89;100498.44;5060796;28;20029;-71
2021/12/18 11:19:37;;;;;;;8.80;4.03;;;;;;;14.26;69.23;100506.41;5042040;28;20476;-71
2021/12/18 11:22:07;;;;;;;7.90;2.83;;;;;;;14.25;69.14;100512.59;5034701;28;20045;-71
2021/12/18 11:24:37;;;;;;;6.88;3.30;;;;;;;14.20;69.42;100510.88;5029905;28;20115;-72
2021/12/18 11:27:08;;;;;;;8.10;4.43;;;;;;;14.13;70.12;100510.00;5040693;28;20052;-71
2021/12/18 11:29:46;;;;;;;9.55;4.45;;;;;;;14.03;70.73;100502.09;5043600;28;20045;-72
2021/12/18 11:32:16;;;;;;;6.97;3.88;;;;;;;13.84;71.98;100502.13;5025699;28;20485;-71
2021/12/18 11:34:46;;;;;;;17.45;12.10;;;;;;;13.72;72.43;100495.97;5063556;28;20041;-72
2021/12/18 11:37:16;;;;;;;22.33;14.32;;;;;;;13.66;72.85;100485.34;5061116;28;20413;-72
2021/12/18 11:39:45;;;;;;;25.38;18.23;;;;;;;13.69;73.16;100474.72;5052362;28;20614;-71
2021/12/18 11:42:14;;;;;;;23.75;15.25;;;;;;;13.75;73.53;100472.94;5064510;28;20048;-71
2021/12/18 11:44:48;;;;;;;27.73;17.95;;;;;;;13.69;73.87;100469.44;5085300;28;20037;-71
2021/12/18 11:47:28;;;;;;;38.13;26.45;;;;;;;13.54;74.63;100459.72;5057975;28;20495;-70
2021/12/18 11:49:58;;;;;;;19.73;12.13;;;;;;;13.44;75.30;100447.38;5066762;28;20123;-70
2021/12/18 11:52:27;;;;;;;29.27;20.52;;;;;;;13.37;75.67;100440.31;5063459;28;20045;-69
2021/12/18 11:54:57;;;;;;;40.03;27.25;;;;;;;13.41;75.96;100415.53;5071014;28;20131;-70
2021/12/18 11:57:52;;;;;;;21.23;15.85;;;;;;;13.33;76.28;100430.56;5069658;28;20055;-70
2021/12/18 12:00:50;;;;;;;17.38;12.45;;;;;;;13.25;76.50;100437.66;5023741;28;20052;-70
2021/12/18 12:03:33;;;;;;;20.17;15.00;;;;;;;13.33;76.54;100428.81;5009357;28;20045;-70